createdAt,value
2019-05-10T00:00:18.816Z,30.00
2019-05-10T00:01:18.811Z,29.20
2019-05-10T00:02:18.797Z,28.80
2019-05-10T00:03:18.785Z,29.20
2019-05-10T00:04:18.767Z,29.00
2019-05-10T00:05:18.787Z,29.40
2019-05-10T00:06:18.749Z,29.30
2019-05-10T00:07:18.738Z,28.80
2019-05-10T00:08:18.724Z,28.90
2019-05-10T00:09:18.711Z,28.30
2019-05-10T00:10:18.704Z,28.80
2019-05-10T00:11:18.705Z,29.70
2019-05-10T00:12:18.686Z,29.60
2019-05-10T00:13:18.698Z,29.90
2019-05-10T00:14:18.693Z,28.90
2019-05-10T00:15:18.660Z,28.40
2019-05-10T00:16:18.674Z,28.90
2019-05-10T00:17:18.619Z,28.90
2019-05-10T00:18:18.606Z,28.50
2019-05-10T00:19:18.595Z,29.00
2019-05-10T00:20:18.593Z,28.60
2019-05-10T00:21:18.591Z,30.00
2019-05-10T00:22:18.614Z,29.10
2019-05-10T00:23:18.558Z,29.00
2019-05-10T00:24:18.541Z,29.20
2019-05-10T00:25:18.527Z,29.00
2019-05-10T00:26:18.525Z,28.40
2019-05-10T00:27:18.513Z,28.10
2019-05-10T00:28:18.507Z,28.20
2019-05-10T00:29:18.487Z,28.50
2019-05-10T00:30:18.484Z,28.00
2019-05-10T00:31:18.469Z,28.00
2019-05-10T00:32:18.461Z,27.50
2019-05-10T00:33:18.484Z,28.40
2019-05-10T00:34:18.442Z,28.70
2019-05-10T00:35:18.423Z,28.80
2019-05-10T00:36:18.408Z,28.20
2019-05-10T00:37:18.397Z,28.80
2019-05-10T00:38:18.381Z,27.90
2019-05-10T00:39:19.579Z,29.10
2019-05-10T00:40:18.363Z,27.50
2019-05-10T00:41:18.359Z,28.90
2019-05-10T00:42:18.342Z,28.50
2019-05-10T00:43:18.355Z,28.50
2019-05-10T00:44:18.316Z,28.20
2019-05-10T00:45:18.312Z,27.80
2019-05-10T00:46:18.296Z,28.30
2019-05-10T00:47:18.281Z,28.10
2019-05-10T00:48:18.275Z,27.90
2019-05-10T00:49:18.273Z,27.50
2019-05-10T00:50:18.244Z,28.70
2019-05-10T00:51:18.234Z,28.70
2019-05-10T00:52:18.225Z,28.20
2019-05-10T00:53:18.218Z,28.60
2019-05-10T00:54:18.217Z,28.50
2019-05-10T00:55:19.520Z,28.20
2019-05-10T00:56:18.181Z,28.80
2019-05-10T00:57:18.236Z,28.90
2019-05-10T00:58:18.157Z,28.60
2019-05-10T00:59:18.146Z,28.30
2019-05-10T01:00:18.136Z,28.80
2019-05-10T01:01:18.758Z,28.70
2019-05-10T01:02:18.114Z,28.90
2019-05-10T01:03:18.122Z,29.50
2019-05-10T01:04:18.102Z,29.10
2019-05-10T01:05:18.086Z,29.10
2019-05-10T01:06:18.064Z,28.50
2019-05-10T01:07:18.063Z,29.00
2019-05-10T01:08:18.089Z,29.40
2019-05-10T01:09:18.074Z,29.40
2019-05-10T01:10:18.081Z,30.00
2019-05-10T01:11:18.012Z,30.30
2019-05-10T01:12:18.002Z,29.40
2019-05-10T01:13:17.988Z,29.20
2019-05-10T01:14:17.979Z,29.60
2019-05-10T01:15:17.961Z,30.00
2019-05-10T01:16:17.969Z,29.80
2019-05-10T01:17:17.935Z,29.40
2019-05-10T01:18:17.928Z,29.70
2019-05-10T01:19:17.918Z,30.10
2019-05-10T01:20:17.927Z,29.80
2019-05-10T01:21:17.890Z,29.70
2019-05-10T01:22:17.879Z,29.70
2019-05-10T01:23:17.880Z,30.50
2019-05-10T01:24:17.860Z,29.80
2019-05-10T01:25:33.730Z,31.00
2019-05-10T01:26:18.853Z,30.00
2019-05-10T01:27:17.836Z,30.00
2019-05-10T01:28:17.810Z,31.10
2019-05-10T01:29:17.807Z,29.90
2019-05-10T01:30:17.793Z,31.10
2019-05-10T01:31:17.798Z,30.00
2019-05-10T01:32:17.773Z,30.10
2019-05-10T01:33:17.767Z,30.60
2019-05-10T01:34:17.747Z,31.00
2019-05-10T01:35:17.741Z,30.00
2019-05-10T01:36:17.754Z,30.10
2019-05-10T01:37:17.717Z,30.40
2019-05-10T01:38:17.708Z,29.30
2019-05-10T01:39:17.692Z,29.60
2019-05-10T01:40:17.675Z,29.90
2019-05-10T01:41:17.672Z,28.80
2019-05-10T01:42:17.687Z,28.70
2019-05-10T01:43:17.641Z,29.10
2019-05-10T01:44:17.638Z,28.90
2019-05-10T01:45:17.620Z,28.30
2019-05-10T01:46:17.628Z,28.30
2019-05-10T01:47:17.595Z,28.10
2019-05-10T01:48:17.596Z,28.30
2019-05-10T01:49:17.577Z,27.70
2019-05-10T01:50:17.582Z,27.80
2019-05-10T01:51:17.554Z,28.60
2019-05-10T01:52:17.542Z,27.40
2019-05-10T01:53:17.546Z,28.00
2019-05-10T01:54:17.522Z,28.50
2019-05-10T01:55:17.511Z,27.60
2019-05-10T01:56:17.494Z,28.60
2019-05-10T01:57:17.482Z,28.90
2019-05-10T01:58:17.485Z,28.00
2019-05-10T01:59:17.482Z,27.10
2019-05-10T02:00:17.449Z,26.80
2019-05-10T02:01:17.441Z,26.00
2019-05-10T02:02:17.423Z,26.10
2019-05-10T02:03:17.430Z,26.40
2019-05-10T02:04:18.026Z,25.60
2019-05-10T02:05:17.397Z,25.20
2019-05-10T02:06:17.385Z,25.70
2019-05-10T02:07:17.423Z,25.80
2019-05-10T02:08:17.375Z,26.20
2019-05-10T02:09:17.346Z,25.70
2019-05-10T02:10:17.331Z,25.00
2019-05-10T02:11:17.324Z,24.90
2019-05-10T02:12:17.316Z,24.50
2019-05-10T02:13:17.307Z,24.70
2019-05-10T02:14:17.291Z,24.70
2019-05-10T02:15:17.285Z,24.00
2019-05-10T02:16:17.267Z,23.90
2019-05-10T02:17:17.259Z,24.80
2019-05-10T02:18:17.254Z,24.10
2019-05-10T02:19:17.244Z,24.20
2019-05-10T02:20:17.224Z,23.90
2019-05-10T02:21:17.213Z,23.60
2019-05-10T02:22:17.195Z,24.20
2019-05-10T02:23:17.209Z,22.90
2019-05-10T02:24:17.178Z,23.20
2019-05-10T02:25:17.158Z,22.70
2019-05-10T02:26:17.159Z,22.80
2019-05-10T02:27:17.142Z,22.50
2019-05-10T02:28:17.147Z,22.50
2019-05-10T02:29:17.123Z,22.50
2019-05-10T02:30:17.108Z,22.40
2019-05-10T02:31:21.251Z,22.60
2019-05-10T02:32:17.085Z,22.10
2019-05-10T02:33:17.070Z,22.00
2019-05-10T02:34:17.073Z,22.20
2019-05-10T02:35:17.073Z,22.60
2019-05-10T02:36:17.049Z,21.80
2019-05-10T02:37:17.033Z,22.30
2019-05-10T02:38:17.015Z,22.00
2019-05-10T02:39:17.012Z,21.90
2019-05-10T02:40:16.990Z,22.50
2019-05-10T02:41:16.987Z,21.40
2019-05-10T02:42:16.968Z,21.20
2019-05-10T02:43:16.956Z,21.90
2019-05-10T02:44:16.948Z,21.80
2019-05-10T02:45:16.959Z,21.60
2019-05-10T02:46:16.919Z,21.50
2019-05-10T02:47:16.917Z,21.40
2019-05-10T02:48:16.918Z,21.30
2019-05-10T02:49:16.892Z,21.10
2019-05-10T02:50:16.908Z,21.10
2019-05-10T02:51:16.871Z,21.00
2019-05-10T02:52:16.855Z,20.90
2019-05-10T02:53:16.841Z,21.40
2019-05-10T02:54:16.829Z,21.40
2019-05-10T02:55:16.830Z,21.20
2019-05-10T02:56:29.617Z,21.40
2019-05-10T02:57:17.793Z,21.40
2019-05-10T02:58:16.787Z,21.20
2019-05-10T02:59:16.779Z,21.30
2019-05-10T03:00:16.784Z,21.20
2019-05-10T03:01:16.746Z,21.60
2019-05-10T03:02:16.739Z,21.40
2019-05-10T03:03:16.730Z,21.90
2019-05-10T03:04:16.715Z,21.60
2019-05-10T03:05:16.800Z,21.30
2019-05-10T03:06:16.705Z,21.30
2019-05-10T03:07:16.688Z,21.00
2019-05-10T03:08:16.720Z,21.90
2019-05-10T03:09:16.655Z,21.80
2019-05-10T03:10:16.652Z,21.30
2019-05-10T03:11:16.647Z,21.80
2019-05-10T03:12:16.689Z,21.70
2019-05-10T03:13:16.613Z,21.40
2019-05-10T03:14:16.610Z,21.40
2019-05-10T03:15:16.590Z,21.10
2019-05-10T03:16:16.600Z,21.10
2019-05-10T03:17:16.578Z,21.30
2019-05-10T03:18:16.557Z,21.30
2019-05-10T03:19:16.544Z,21.30
2019-05-10T03:20:16.534Z,21.60
2019-05-10T03:21:16.543Z,21.00
2019-05-10T03:22:16.515Z,21.30
2019-05-10T03:23:16.505Z,20.70
2019-05-10T03:24:16.515Z,21.10
2019-05-10T03:25:16.492Z,21.50
2019-05-10T03:26:16.511Z,20.90
2019-05-10T03:27:16.452Z,20.80
2019-05-10T03:28:16.447Z,21.30
2019-05-10T03:29:16.443Z,20.80
2019-05-10T03:30:16.420Z,21.00
2019-05-10T03:31:16.412Z,21.30
2019-05-10T03:32:16.412Z,20.60
2019-05-10T03:33:16.413Z,21.00
2019-05-10T03:34:16.422Z,21.20
2019-05-10T03:35:16.372Z,21.40
2019-05-10T03:36:16.349Z,21.10
2019-05-10T03:37:16.397Z,21.60
2019-05-10T03:38:16.399Z,21.40
2019-05-10T03:39:16.319Z,21.30
2019-05-10T03:40:16.313Z,21.00
2019-05-10T03:41:16.296Z,20.80
2019-05-10T03:42:16.276Z,21.00
2019-05-10T03:43:16.287Z,20.90
2019-05-10T03:44:16.256Z,21.00
2019-05-10T03:45:16.249Z,21.20
2019-05-10T03:46:16.239Z,21.10
2019-05-10T03:47:16.232Z,21.40
2019-05-10T03:48:16.228Z,21.40
2019-05-10T03:49:16.205Z,21.70
2019-05-10T03:50:16.203Z,21.20
2019-05-10T03:51:16.187Z,21.40
2019-05-10T03:52:16.170Z,21.40
2019-05-10T03:53:16.171Z,21.50
2019-05-10T03:54:16.142Z,21.40
2019-05-10T03:55:16.130Z,21.20
2019-05-10T03:56:16.123Z,21.40
2019-05-10T03:57:16.132Z,21.40
2019-05-10T03:58:16.104Z,21.50
2019-05-10T03:59:16.098Z,20.70
2019-05-10T04:00:16.092Z,20.90
2019-05-10T04:01:16.073Z,21.10
2019-05-10T04:02:16.062Z,20.80
2019-05-10T04:03:16.059Z,20.70
2019-05-10T04:04:16.050Z,21.20
2019-05-10T04:05:16.025Z,20.90
2019-05-10T04:06:16.019Z,21.00
2019-05-10T04:07:15.999Z,20.90
2019-05-10T04:08:15.984Z,20.90
2019-05-10T04:09:15.973Z,20.90
2019-05-10T04:10:20.287Z,20.90
2019-05-10T04:11:16.980Z,20.50
2019-05-10T04:12:15.950Z,20.30
2019-05-10T04:13:15.965Z,20.30
2019-05-10T04:14:15.930Z,20.90
2019-05-10T04:15:15.924Z,20.50
2019-05-10T04:16:15.900Z,20.80
2019-05-10T04:17:15.885Z,20.10
2019-05-10T04:18:15.881Z,20.50
2019-05-10T04:19:15.870Z,20.60
2019-05-10T04:20:15.856Z,20.80
2019-05-10T04:21:15.843Z,20.70
2019-05-10T04:22:15.828Z,20.30
2019-05-10T04:23:15.833Z,20.80
2019-05-10T04:24:15.809Z,20.80
2019-05-10T04:25:15.792Z,20.90
2019-05-10T04:26:15.824Z,20.40
2019-05-10T04:27:30.681Z,20.10
2019-05-10T04:28:16.762Z,20.60
2019-05-10T04:29:15.754Z,20.60
2019-05-10T04:30:15.745Z,20.30
2019-05-10T04:31:15.755Z,20.20
2019-05-10T04:32:15.723Z,20.30
2019-05-10T04:33:15.704Z,20.40
2019-05-10T04:34:15.693Z,20.60
2019-05-10T04:35:15.693Z,20.80
2019-05-10T04:36:15.673Z,20.30
2019-05-10T04:37:15.667Z,20.80
2019-05-10T04:38:15.653Z,20.70
2019-05-10T04:39:15.722Z,20.50
2019-05-10T04:40:15.629Z,20.60
2019-05-10T04:41:15.615Z,20.10
2019-05-10T04:42:15.639Z,20.50
2019-05-10T04:43:15.605Z,20.60
2019-05-10T04:44:15.591Z,20.60
2019-05-10T04:45:15.580Z,20.10
2019-05-10T04:46:15.564Z,20.90
2019-05-10T04:47:15.563Z,20.90
2019-05-10T04:48:15.543Z,20.60
2019-05-10T04:49:15.528Z,20.80
2019-05-10T04:50:15.516Z,20.80
2019-05-10T04:51:15.509Z,20.90
2019-05-10T04:52:15.504Z,20.40
2019-05-10T04:53:15.497Z,20.70
2019-05-10T04:54:15.484Z,20.80
2019-05-10T04:55:15.468Z,21.00
2019-05-10T04:56:15.464Z,20.80
2019-05-10T04:57:15.440Z,21.00
2019-05-10T04:58:15.431Z,20.40
2019-05-10T04:59:15.439Z,20.40
2019-05-10T05:00:15.419Z,20.70
2019-05-10T05:01:15.402Z,20.60
2019-05-10T05:02:15.428Z,20.30
2019-05-10T05:03:15.371Z,20.80
2019-05-10T05:04:15.371Z,20.50
2019-05-10T05:05:15.374Z,21.20
2019-05-10T05:06:15.346Z,20.70
2019-05-10T05:07:15.335Z,20.50
2019-05-10T05:08:15.327Z,20.80
2019-05-10T05:09:15.305Z,21.00
2019-05-10T05:10:15.294Z,20.80
2019-05-10T05:11:15.290Z,20.90
2019-05-10T05:12:15.282Z,20.90
2019-05-10T05:13:15.267Z,20.60
2019-05-10T05:14:15.252Z,21.00
2019-05-10T05:15:15.257Z,21.00
2019-05-10T05:16:15.275Z,20.90
2019-05-10T05:17:15.216Z,20.60
2019-05-10T05:18:15.205Z,21.40
2019-05-10T05:19:15.196Z,21.40
2019-05-10T05:20:15.188Z,21.30
2019-05-10T05:21:15.173Z,21.60
2019-05-10T05:22:15.173Z,21.60
2019-05-10T05:23:15.171Z,21.60
2019-05-10T05:24:17.148Z,21.60
2019-05-10T05:25:16.124Z,21.50
2019-05-10T05:26:15.115Z,21.40
2019-05-10T05:27:15.114Z,21.60
2019-05-10T05:28:18.464Z,21.20
2019-05-10T05:29:16.104Z,21.40
2019-05-10T05:30:15.099Z,21.50
2019-05-10T05:31:15.062Z,21.70
2019-05-10T05:32:15.055Z,21.40
2019-05-10T05:33:15.042Z,21.40
2019-05-10T05:34:15.049Z,21.90
2019-05-10T05:35:15.602Z,21.80
2019-05-10T05:36:15.012Z,21.40
2019-05-10T05:37:14.991Z,21.10
2019-05-10T05:38:14.996Z,21.60
2019-05-10T05:39:14.979Z,21.30
2019-05-10T05:40:14.994Z,21.20
2019-05-10T05:41:14.951Z,21.10
2019-05-10T05:42:14.942Z,21.10
2019-05-10T05:43:14.929Z,21.20
2019-05-10T05:44:14.919Z,21.20
2019-05-10T05:45:14.911Z,21.20
2019-05-10T05:46:15.001Z,21.20
2019-05-10T05:47:14.880Z,21.40
2019-05-10T05:48:16.167Z,21.60
2019-05-10T05:49:15.855Z,21.40
2019-05-10T05:50:14.846Z,21.70
2019-05-10T05:51:14.887Z,21.40
2019-05-10T05:52:14.832Z,21.00
2019-05-10T05:53:14.812Z,21.60
2019-05-10T05:54:19.993Z,21.80
2019-05-10T05:55:15.792Z,21.10
2019-05-10T05:56:14.941Z,21.00
2019-05-10T05:57:14.768Z,20.90
2019-05-10T05:58:25.685Z,21.00
2019-05-10T05:59:17.532Z,21.00
2019-05-10T06:00:15.747Z,21.00
2019-05-10T06:01:24.283Z,21.00
2019-05-10T06:02:15.737Z,20.80
2019-05-10T06:03:19.493Z,20.80
2019-05-10T06:04:15.705Z,20.80
2019-05-10T06:05:32.784Z,20.40
2019-05-10T06:06:21.286Z,21.20
2019-05-10T06:07:15.657Z,20.50
2019-05-10T06:08:22.955Z,20.70
2019-05-10T06:09:15.642Z,20.40
2019-05-10T06:10:17.414Z,20.80
2019-05-10T06:11:14.617Z,20.70
2019-05-10T06:12:14.614Z,21.20
2019-05-10T06:13:14.628Z,20.60
2019-05-10T06:14:14.579Z,20.60
2019-05-10T06:15:14.577Z,20.60
2019-05-10T06:16:14.922Z,20.80
2019-05-10T06:17:14.550Z,20.70
2019-05-10T06:18:14.539Z,20.70
2019-05-10T06:19:14.537Z,20.50
2019-05-10T06:20:14.517Z,20.30
2019-05-10T06:21:17.821Z,20.40
2019-05-10T06:22:15.513Z,21.10
2019-05-10T06:23:14.483Z,20.90
2019-05-10T06:24:15.867Z,20.80
2019-05-10T06:25:14.474Z,20.50
2019-05-10T06:26:24.050Z,20.50
2019-05-10T06:27:15.437Z,20.20
2019-05-10T06:28:26.241Z,20.20
2019-05-10T06:29:17.765Z,20.10
2019-05-10T06:30:14.405Z,20.20
2019-05-10T06:31:14.401Z,20.40
2019-05-10T06:32:14.383Z,20.00
2019-05-10T06:33:14.375Z,19.80
2019-05-10T06:34:14.391Z,19.80
2019-05-10T06:35:19.313Z,19.30
2019-05-10T06:36:15.337Z,19.30
2019-05-10T06:37:14.349Z,19.10
2019-05-10T06:38:14.319Z,19.00
2019-05-10T06:39:14.305Z,19.20
2019-05-10T06:40:14.325Z,18.90
2019-05-10T06:41:16.787Z,18.80
2019-05-10T06:42:14.272Z,19.00
2019-05-10T06:43:15.629Z,19.30
2019-05-10T06:44:14.252Z,18.90
2019-05-10T06:45:16.046Z,19.40
2019-05-10T06:46:14.246Z,19.30
2019-05-10T06:47:14.209Z,19.40
2019-05-10T06:48:14.207Z,19.50
2019-05-10T06:49:14.193Z,19.50
2019-05-10T06:50:14.194Z,19.40
2019-05-10T06:51:14.170Z,19.40
2019-05-10T06:52:16.318Z,19.90
2019-05-10T06:53:14.151Z,19.50
2019-05-10T06:54:14.136Z,19.60
2019-05-10T06:55:14.122Z,19.80
2019-05-10T06:56:14.118Z,19.90
2019-05-10T06:57:17.378Z,19.60
2019-05-10T06:58:15.107Z,19.70
2019-05-10T06:59:19.043Z,19.70
2019-05-10T07:00:15.093Z,19.60
2019-05-10T07:01:14.062Z,19.20
2019-05-10T07:02:14.056Z,19.00
2019-05-10T07:03:14.063Z,19.80
2019-05-10T07:04:14.031Z,19.00
2019-05-10T07:05:14.010Z,19.50
2019-05-10T07:06:14.004Z,19.40
2019-05-10T07:07:22.090Z,19.50
2019-05-10T07:08:20.204Z,19.50
2019-05-10T07:09:14.969Z,20.50
2019-05-10T07:10:19.131Z,20.20
2019-05-10T07:11:14.967Z,19.90
2019-05-10T07:12:15.145Z,20.00
2019-05-10T07:13:13.941Z,20.60
2019-05-10T07:14:13.913Z,20.50
2019-05-10T07:15:13.919Z,20.90
2019-05-10T07:16:14.560Z,20.90
2019-05-10T07:17:14.896Z,20.80
2019-05-10T07:18:16.786Z,20.30
2019-05-10T07:19:14.859Z,20.50
2019-05-10T07:20:13.845Z,20.00
2019-05-10T07:21:13.839Z,20.30
2019-05-10T07:22:13.835Z,20.60
2019-05-10T07:23:13.834Z,20.40
2019-05-10T07:24:18.163Z,20.60
2019-05-10T07:25:14.790Z,20.60
2019-05-10T07:26:17.500Z,20.90
2019-05-10T07:27:14.769Z,20.60
2019-05-10T07:28:15.916Z,20.70
2019-05-10T07:29:29.017Z,20.70
2019-05-10T07:30:14.733Z,20.70
2019-05-10T07:31:13.720Z,21.00
2019-05-10T07:32:16.423Z,20.20
2019-05-10T07:33:14.716Z,20.10
2019-05-10T07:34:15.788Z,20.40
2019-05-10T07:35:13.680Z,20.40
2019-05-10T07:36:15.223Z,20.70
2019-05-10T07:37:13.664Z,20.10
2019-05-10T07:38:13.656Z,20.50
2019-05-10T07:39:13.641Z,20.90
2019-05-10T07:40:13.631Z,20.70
2019-05-10T07:41:19.760Z,20.80
2019-05-10T07:42:14.606Z,20.90
2019-05-10T07:43:24.998Z,20.90
2019-05-10T07:44:14.575Z,21.00
2019-05-10T07:45:13.574Z,20.70
2019-05-10T07:46:13.555Z,21.30
2019-05-10T07:47:13.551Z,21.10
2019-05-10T07:48:13.538Z,21.20
2019-05-10T07:49:13.559Z,21.00
2019-05-10T07:50:13.513Z,21.10
2019-05-10T07:51:13.501Z,21.10
2019-05-10T07:52:13.490Z,21.20
2019-05-10T07:53:16.470Z,20.80
2019-05-10T07:54:14.474Z,21.20
2019-05-10T07:55:17.883Z,20.60
2019-05-10T07:56:14.443Z,20.30
2019-05-10T07:57:13.435Z,19.90
2019-05-10T07:58:13.455Z,20.20
2019-05-10T07:59:16.317Z,20.90
2019-05-10T08:00:14.403Z,20.50
2019-05-10T08:01:13.395Z,20.60
2019-05-10T08:02:14.915Z,20.50
2019-05-10T08:03:17.750Z,21.20
2019-05-10T08:04:19.744Z,21.10
2019-05-10T08:05:15.446Z,21.10
2019-05-10T08:06:15.373Z,21.40
2019-05-10T08:07:13.331Z,21.70
2019-05-10T08:08:13.317Z,22.80
2019-05-10T08:09:13.329Z,23.80
2019-05-10T08:10:13.293Z,24.70
2019-05-10T08:11:13.284Z,24.70
2019-05-10T08:12:13.273Z,25.20
2019-05-10T08:13:15.418Z,25.70
2019-05-10T08:14:14.262Z,25.80
2019-05-10T08:15:13.276Z,26.10
2019-05-10T08:16:19.543Z,25.60
2019-05-10T08:17:14.214Z,25.60
2019-05-10T08:18:15.430Z,26.90
2019-05-10T08:19:14.261Z,28.20
2019-05-10T08:20:21.392Z,27.40
2019-05-10T08:21:21.911Z,27.80
2019-05-10T08:22:14.874Z,27.40
2019-05-10T08:23:13.238Z,28.20
2019-05-10T08:24:16.525Z,28.60
2019-05-10T08:25:15.414Z,27.90
2019-05-10T08:26:19.706Z,27.50
2019-05-10T08:27:15.010Z,28.40
2019-05-10T08:28:13.089Z,28.00
2019-05-10T08:29:16.736Z,27.80
2019-05-10T08:30:25.503Z,27.50
2019-05-10T08:31:14.095Z,27.80
2019-05-10T08:32:13.043Z,28.20
2019-05-10T08:33:14.345Z,27.80
2019-05-10T08:34:13.029Z,28.60
2019-05-10T08:35:17.209Z,28.60
2019-05-10T08:36:14.012Z,27.80
2019-05-10T08:37:13.014Z,28.30
2019-05-10T08:38:13.142Z,29.10
2019-05-10T08:39:13.957Z,29.60
2019-05-10T08:40:13.026Z,28.80
2019-05-10T08:41:14.676Z,29.40
2019-05-10T08:42:34.628Z,29.50
2019-05-10T08:43:16.628Z,29.60
2019-05-10T08:44:19.272Z,30.30
2019-05-10T08:45:13.905Z,30.10
2019-05-10T08:46:12.889Z,29.50
2019-05-10T08:47:22.371Z,29.50
2019-05-10T08:48:13.906Z,30.00
2019-05-10T08:49:13.062Z,29.60
2019-05-10T08:50:28.894Z,30.30
2019-05-10T08:51:13.835Z,31.00
2019-05-10T08:52:12.820Z,30.30
2019-05-10T08:53:16.279Z,29.60
2019-05-10T08:54:12.800Z,30.80
2019-05-10T08:55:12.804Z,30.20
2019-05-10T08:56:20.598Z,30.70
2019-05-10T08:57:18.632Z,30.10
2019-05-10T08:58:13.808Z,29.90
2019-05-10T08:59:16.360Z,29.00
2019-05-10T09:00:13.766Z,28.80
2019-05-10T09:01:24.238Z,28.20
2019-05-10T09:02:14.671Z,28.80
2019-05-10T09:03:18.391Z,28.70
2019-05-10T09:04:13.893Z,28.60
2019-05-10T09:05:12.730Z,27.90
2019-05-10T09:06:16.706Z,27.70
2019-05-10T09:07:12.665Z,27.60
2019-05-10T09:08:19.571Z,28.10
2019-05-10T09:09:13.685Z,28.30
2019-05-10T09:10:13.028Z,27.80
2019-05-10T09:11:12.616Z,28.60
2019-05-10T09:12:12.625Z,29.40
2019-05-10T09:13:12.946Z,30.50
2019-05-10T09:14:19.752Z,31.30
2019-05-10T09:15:13.903Z,32.10
2019-05-10T09:16:13.655Z,31.90
2019-05-10T09:17:14.792Z,33.60
2019-05-10T09:18:13.542Z,33.90
2019-05-10T09:19:12.592Z,33.90
2019-05-10T09:20:20.727Z,35.20
2019-05-10T09:21:14.248Z,35.00
2019-05-10T09:22:12.563Z,35.00
2019-05-10T09:23:15.233Z,35.60
2019-05-10T09:24:13.475Z,35.40
2019-05-10T09:25:13.004Z,34.80
2019-05-10T09:26:16.352Z,34.70
2019-05-10T09:27:12.935Z,33.50
2019-05-10T09:28:16.893Z,34.10
2019-05-10T09:29:12.415Z,33.50
2019-05-10T09:30:14.228Z,32.70
2019-05-10T09:31:20.836Z,32.70
2019-05-10T09:32:13.384Z,32.30
2019-05-10T09:33:14.238Z,32.10
2019-05-10T09:34:12.357Z,31.50
2019-05-10T09:35:12.934Z,31.10
2019-05-10T09:36:12.613Z,30.80
2019-05-10T09:37:14.277Z,29.80
2019-05-10T09:38:13.319Z,29.90
2019-05-10T09:39:17.777Z,29.40
2019-05-10T09:40:13.710Z,29.70
2019-05-10T09:41:12.282Z,29.30
2019-05-10T09:42:24.972Z,28.70
2019-05-10T09:43:14.902Z,29.60
2019-05-10T09:44:13.051Z,29.00
2019-05-10T09:45:13.006Z,31.40
2019-05-10T09:46:14.184Z,31.70
2019-05-10T09:47:12.211Z,32.20
2019-05-10T09:48:12.351Z,32.90
2019-05-10T09:49:17.801Z,33.20
2019-05-10T09:50:13.178Z,34.50
2019-05-10T09:51:13.736Z,35.80
2019-05-10T09:52:13.409Z,35.60
2019-05-10T09:53:15.346Z,35.00
2019-05-10T09:54:12.133Z,36.00
2019-05-10T09:55:14.698Z,37.80
2019-05-10T09:56:12.129Z,37.20
2019-05-10T09:57:12.098Z,37.70
2019-05-10T09:58:12.096Z,39.80
2019-05-10T09:59:12.081Z,39.00
2019-05-10T10:00:12.076Z,37.50
2019-05-10T10:01:18.132Z,39.40
2019-05-10T10:02:15.651Z,39.90
2019-05-10T10:03:13.241Z,43.30
2019-05-10T10:04:12.020Z,42.90
2019-05-10T10:05:12.010Z,44.00
2019-05-10T10:06:12.002Z,42.00
2019-05-10T10:07:11.992Z,43.60
2019-05-10T10:08:12.015Z,42.20
2019-05-10T10:09:11.971Z,42.90
2019-05-10T10:10:12.602Z,42.40
2019-05-10T10:11:15.661Z,40.90
2019-05-10T10:12:12.933Z,42.20
2019-05-10T10:13:14.075Z,41.20
2019-05-10T10:14:11.926Z,41.50
2019-05-10T10:15:18.651Z,41.20
2019-05-10T10:16:14.941Z,39.20
2019-05-10T10:17:11.882Z,39.80
2019-05-10T10:18:12.467Z,38.60
2019-05-10T10:19:12.856Z,37.40
2019-05-10T10:20:11.885Z,36.00
2019-05-10T10:21:13.207Z,36.10
2019-05-10T10:22:13.255Z,36.50
2019-05-10T10:23:11.815Z,35.70
2019-05-10T10:24:17.143Z,35.70
2019-05-10T10:25:12.831Z,35.50
2019-05-10T10:26:12.663Z,35.00
2019-05-10T10:27:12.769Z,34.40
2019-05-10T10:28:16.867Z,34.00
2019-05-10T10:29:12.748Z,34.50
2019-05-10T10:30:14.991Z,33.00
2019-05-10T10:31:26.225Z,33.10
2019-05-10T10:32:12.720Z,32.00
2019-05-10T10:33:17.773Z,32.50
2019-05-10T10:34:12.695Z,32.10
2019-05-10T10:35:13.236Z,31.50
2019-05-10T10:36:12.662Z,33.30
2019-05-10T10:37:14.533Z,32.40
2019-05-10T10:38:12.658Z,32.50
2019-05-10T10:39:11.637Z,32.70
2019-05-10T10:40:14.977Z,32.40
2019-05-10T10:41:11.615Z,32.90
2019-05-10T10:42:13.215Z,31.90
2019-05-10T10:43:11.600Z,32.70
2019-05-10T10:44:11.579Z,31.70
2019-05-10T10:45:11.565Z,31.00
2019-05-10T10:46:12.629Z,31.60
2019-05-10T10:47:11.556Z,32.30
2019-05-10T10:48:13.074Z,31.40
2019-05-10T10:49:14.357Z,30.00
2019-05-10T10:50:13.675Z,30.10
2019-05-10T10:51:11.503Z,30.20
2019-05-10T10:52:13.475Z,30.50
2019-05-10T10:53:11.475Z,29.90
2019-05-10T10:54:11.466Z,29.00
2019-05-10T10:55:13.353Z,28.90
2019-05-10T10:56:11.465Z,28.30
2019-05-10T10:57:11.435Z,27.80
2019-05-10T10:58:11.428Z,27.30
2019-05-10T10:59:11.419Z,27.10
2019-05-10T11:00:11.406Z,27.60
2019-05-10T11:01:21.362Z,25.70
2019-05-10T11:02:33.431Z,25.10
2019-05-10T11:03:12.363Z,25.10
2019-05-10T11:04:11.359Z,26.10
2019-05-10T11:05:11.355Z,25.40
2019-05-10T11:06:11.336Z,25.50
2019-05-10T11:07:11.408Z,25.20
2019-05-10T11:08:11.355Z,25.70
2019-05-10T11:09:11.302Z,26.20
2019-05-10T11:10:18.161Z,26.40
2019-05-10T11:11:12.332Z,26.00
2019-05-10T11:12:14.560Z,25.80
2019-05-10T11:13:18.812Z,26.30
2019-05-10T11:14:12.489Z,26.50
2019-05-10T11:15:11.607Z,25.70
2019-05-10T11:16:15.773Z,25.80
2019-05-10T11:17:11.242Z,26.10
2019-05-10T11:18:11.210Z,25.90
2019-05-10T11:19:15.458Z,25.90
2019-05-10T11:20:11.711Z,25.20
2019-05-10T11:21:11.815Z,25.00
2019-05-10T11:22:11.299Z,25.00
2019-05-10T11:23:11.168Z,25.00
2019-05-10T11:24:18.075Z,24.70
2019-05-10T11:25:13.063Z,24.60
2019-05-10T11:26:11.121Z,24.10
2019-05-10T11:27:15.185Z,24.30
2019-05-10T11:28:12.174Z,23.50
2019-05-10T11:29:14.215Z,23.50
2019-05-10T11:30:12.392Z,22.70
2019-05-10T11:31:11.503Z,22.90
2019-05-10T11:32:16.257Z,22.30
2019-05-10T11:33:26.027Z,23.10
2019-05-10T11:34:12.053Z,24.10
2019-05-10T11:35:11.927Z,24.30
2019-05-10T11:36:12.008Z,23.90
2019-05-10T11:37:10.999Z,23.50
2019-05-10T11:38:12.938Z,24.30
2019-05-10T11:39:25.714Z,23.90
2019-05-10T11:40:11.962Z,24.30
2019-05-10T11:41:13.516Z,25.00
2019-05-10T11:42:15.404Z,24.50
2019-05-10T11:43:10.949Z,25.50
2019-05-10T11:44:12.049Z,25.70
2019-05-10T11:45:11.172Z,27.60
2019-05-10T11:46:11.787Z,26.30
2019-05-10T11:47:22.992Z,25.80
2019-05-10T11:48:11.899Z,25.80
2019-05-10T11:49:10.859Z,26.20
2019-05-10T11:50:10.894Z,27.00
2019-05-10T11:51:16.039Z,26.70
2019-05-10T11:52:13.280Z,26.40
2019-05-10T11:53:13.391Z,26.00
2019-05-10T11:54:11.800Z,26.00
2019-05-10T11:55:11.455Z,26.70
2019-05-10T11:57:13.853Z,26.30
2019-05-10T11:58:13.169Z,26.20
2019-05-10T11:59:04.923Z,26.50
2019-05-10T11:59:15.892Z,25.70
2019-05-10T12:00:24.624Z,25.60
2019-05-10T12:01:17.630Z,25.80
2019-05-10T12:02:33.828Z,25.40
2019-05-10T12:03:18.147Z,26.00
2019-05-10T12:04:22.695Z,25.90
2019-05-10T12:05:19.897Z,25.30
2019-05-10T12:06:12.279Z,25.00
2019-05-10T12:07:12.914Z,25.20
2019-05-10T12:08:13.067Z,25.10
2019-05-10T12:09:12.546Z,25.10
2019-05-10T12:10:18.391Z,25.30
2019-05-10T12:12:12.467Z,25.70
2019-05-10T12:13:18.630Z,26.20
2019-05-10T12:14:13.810Z,25.50
2019-05-10T12:15:13.753Z,25.10
2019-05-10T12:16:16.109Z,25.10
2019-05-10T12:17:14.247Z,24.40
2019-05-10T12:18:14.749Z,24.30
2019-05-10T12:19:20.593Z,24.20
2019-05-10T12:20:16.343Z,23.30
2019-05-10T12:21:11.554Z,24.20
2019-05-10T12:22:15.887Z,24.40
2019-05-10T12:23:13.142Z,24.20
2019-05-10T12:24:32.849Z,23.50
2019-05-10T12:25:36.268Z,23.70
2019-05-10T12:26:31.160Z,24.50
2019-05-10T12:27:24.861Z,23.80
2019-05-10T12:28:15.358Z,24.00
2019-05-10T12:29:16.028Z,23.80
2019-05-10T12:30:11.684Z,23.50
2019-05-10T12:31:15.097Z,23.70
2019-05-10T12:32:11.387Z,23.90
2019-05-10T12:33:23.642Z,23.20
2019-05-10T12:34:14.477Z,23.00
2019-05-10T12:35:11.741Z,22.50
2019-05-10T12:36:21.581Z,22.80
2019-05-10T12:37:11.327Z,21.90
2019-05-10T12:38:11.321Z,21.60
2019-05-10T12:39:11.556Z,21.80
2019-05-10T12:40:14.867Z,21.60
2019-05-10T12:41:11.276Z,21.60
2019-05-10T12:42:13.990Z,21.70
2019-05-10T12:43:11.012Z,21.90
2019-05-10T12:44:11.208Z,22.00
2019-05-10T12:45:10.233Z,22.30
2019-05-10T12:46:10.578Z,21.80
2019-05-10T12:47:11.412Z,21.70
2019-05-10T12:48:10.204Z,21.30
2019-05-10T12:49:12.027Z,21.00
2019-05-10T12:50:10.214Z,21.10
2019-05-10T12:51:15.192Z,21.30
2019-05-10T12:52:14.035Z,21.00
2019-05-10T12:53:15.422Z,20.80